Time;durP1;ratioP1;P1;durP2;ratioP2;P2;SDS_P1;SDS_P2;PMS_P1;PMS_P2;Temp;Humidity;BMP_temperature;BMP_pressure;BME280_temperature;BME280_humidity;BME280_pressure;Samples;Min_cycle;Max_cycle;Signal;HPM_P1;HPM_P2
2023/07/27 00:00:41;;;;;;;9.15;4.68;;;;;;;12.86;100.00;100954.50;4989898;28;20045;-82
2023/07/27 00:03:08;;;;;;;8.43;5.50;;;;;;;12.85;100.00;100958.94;4991961;28;20526;-82
2023/07/27 00:05:37;;;;;;;5.82;4.68;;;;;;;12.86;100.00;100959.81;4999481;28;20053;-81
2023/07/27 00:08:05;;;;;;;8.98;5.57;;;;;;;12.84;100.00;100953.66;4990715;28;20053;-80
2023/07/27 00:10:32;;;;;;;9.82;5.38;;;;;;;12.84;100.00;100954.53;4998930;28;20060;-81
2023/07/27 00:13:00;;;;;;;5.65;4.72;;;;;;;12.84;100.00;100945.72;5027583;28;20037;-81
2023/07/27 00:15:27;;;;;;;8.50;5.20;;;;;;;12.84;100.00;100945.72;4993014;28;20069;-81
2023/07/27 00:17:55;;;;;;;8.50;4.63;;;;;;;12.82;100.00;100951.00;4971977;28;20511;-81
2023/07/27 00:20:23;;;;;;;6.38;4.88;;;;;;;12.82;100.00;100942.19;4956981;28;20054;-81
2023/07/27 00:22:51;;;;;;;8.50;5.15;;;;;;;12.80;100.00;100939.56;4988761;28;20058;-81
2023/07/27 00:25:18;;;;;;;7.20;5.03;;;;;;;12.79;100.00;100939.56;4960998;28;20050;-81
2023/07/27 00:27:45;;;;;;;8.48;4.93;;;;;;;12.77;100.00;100934.28;5016199;28;21217;-81
2023/07/27 00:30:14;;;;;;;8.40;5.72;;;;;;;12.77;100.00;100938.69;4986747;28;20058;-80
2023/07/27 00:32:41;;;;;;;9.88;5.55;;;;;;;12.76;100.00;100939.56;5010568;28;20057;-81
2023/07/27 00:35:08;;;;;;;6.78;5.05;;;;;;;12.75;100.00;100938.69;5006371;28;20061;-81
2023/07/27 00:37:37;;;;;;;7.88;5.25;;;;;;;12.74;100.00;100925.47;5012027;28;20050;-81
2023/07/27 00:40:05;;;;;;;8.70;5.13;;;;;;;12.73;100.00;100924.59;5004622;28;20064;-81
2023/07/27 00:42:32;;;;;;;12.25;5.75;;;;;;;12.73;100.00;100921.09;5022758;28;20062;-81
2023/07/27 00:45:00;;;;;;;8.82;5.10;;;;;;;12.72;100.00;100925.50;4992021;28;25979;-81
2023/07/27 00:47:30;;;;;;;7.95;4.93;;;;;;;12.71;100.00;100925.50;5013440;28;20042;-80
2023/07/27 00:49:57;;;;;;;14.82;5.97;;;;;;;12.70;100.00;100921.94;5005294;28;20058;-79
2023/07/27 00:52:24;;;;;;;14.38;5.47;;;;;;;12.68;100.00;100915.78;4990978;28;20049;-79
2023/07/27 00:54:57;;;;;;;8.98;5.05;;;;;;;12.66;100.00;100921.13;5003168;28;20056;-81
2023/07/27 00:57:27;;;;;;;16.20;6.25;;;;;;;12.65;100.00;100913.19;5006932;28;20042;-80
2023/07/27 00:59:57;;;;;;;7.85;5.30;;;;;;;12.62;100.00;100910.53;4994666;28;20066;-79
2023/07/27 01:02:25;;;;;;;9.35;5.60;;;;;;;12.61;100.00;100907.03;5001342;28;20454;-80
2023/07/27 01:04:54;;;;;;;9.55;5.75;;;;;;;12.61;100.00;100895.59;4994308;28;20191;-79
2023/07/27 01:07:21;;;;;;;8.02;5.65;;;;;;;12.60;100.00;100894.69;4996503;28;20049;-80
2023/07/27 01:09:49;;;;;;;6.80;5.20;;;;;;;12.61;100.00;100895.59;5011816;28;20514;-80
2023/07/27 01:12:25;;;;;;;11.73;5.95;;;;;;;12.60;100.00;100893.81;5013141;28;20057;-80
2023/07/27 01:15:03;;;;;;;5.60;4.78;;;;;;;12.58;100.00;100887.66;5011602;28;20050;-81
2023/07/27 01:17:58;;;;;;;11.50;6.32;;;;;;;12.56;100.00;100882.38;4988933;28;20058;-79
2023/07/27 01:20:34;;;;;;;10.57;6.63;;;;;;;12.55;100.00;100885.00;5013527;28;20431;-80
2023/07/27 01:23:24;;;;;;;10.18;6.45;;;;;;;12.55;100.00;100869.16;5009380;28;20056;-79
2023/07/27 01:26:41;;;;;;;13.02;6.63;;;;;;;12.56;100.00;100870.94;5002496;28;20056;-80
2023/07/27 01:29:36;;;;;;;9.80;5.90;;;;;;;12.57;100.00;100859.44;5010782;28;20073;-80
2023/07/27 01:32:06;;;;;;;13.70;6.78;;;;;;;12.57;100.00;100856.81;4990166;28;20049;-79
2023/07/27 01:34:36;;;;;;;10.98;6.18;;;;;;;12.58;100.00;100855.94;5028914;28;20053;-79
2023/07/27 01:37:08;;;;;;;9.95;6.15;;;;;;;12.60;100.00;100856.81;5008818;28;20053;-80
2023/07/27 01:39:42;;;;;;;10.55;6.50;;;;;;;12.61;100.00;100848.88;5013471;28;20046;-81
2023/07/27 01:42:13;;;;;;;10.18;5.57;;;;;;;12.62;100.00;100844.44;5003031;28;20046;-80
2023/07/27 01:44:42;;;;;;;8.82;6.10;;;;;;;12.62;100.00;100845.31;4996835;28;20056;-81
2023/07/27 01:47:11;;;;;;;10.40;6.32;;;;;;;12.62;100.00;100837.38;4985585;28;20529;-81
2023/07/27 01:49:41;;;;;;;8.05;5.97;;;;;;;12.63;100.00;100843.59;4960065;28;20054;-81
2023/07/27 01:52:09;;;;;;;8.67;5.50;;;;;;;12.63;100.00;100840.94;4973089;28;20057;-79
2023/07/27 01:54:38;;;;;;;8.02;5.80;;;;;;;12.62;100.00;100831.22;4990048;28;20051;-80
2023/07/27 01:57:08;;;;;;;10.20;6.25;;;;;;;12.64;100.00;100826.81;4989276;28;20470;-80
2023/07/27 01:59:38;;;;;;;12.13;6.97;;;;;;;12.64;100.00;100824.16;5002809;28;20069;-79
2023/07/27 02:02:06;;;;;;;10.77;6.22;;;;;;;12.64;100.00;100821.53;4973645;28;20054;-80
2023/07/27 02:04:36;;;;;;;13.18;6.90;;;;;;;12.63;100.00;100825.94;4973146;28;20054;-80
2023/07/27 02:07:05;;;;;;;11.30;5.93;;;;;;;12.63;100.00;100815.38;5025602;28;20057;-80
2023/07/27 02:09:33;;;;;;;10.15;6.10;;;;;;;12.64;100.00;100813.59;4995338;28;20050;-80
2023/07/27 02:12:05;;;;;;;10.10;5.70;;;;;;;12.62;100.00;100821.53;5007578;28;20049;-80
2023/07/27 02:14:45;;;;;;;11.95;6.10;;;;;;;12.63;100.00;100810.09;4996180;28;20042;-79
2023/07/27 02:17:40;;;;;;;10.30;6.00;;;;;;;12.64;100.00;100810.94;5004877;28;20058;-79
2023/07/27 02:20:12;;;;;;;9.05;5.80;;;;;;;12.63;100.00;100801.28;4990478;28;20668;-80
2023/07/27 02:22:42;;;;;;;8.32;5.78;;;;;;;12.63;100.00;100806.56;5009965;28;20057;-81
2023/07/27 02:25:09;;;;;;;8.75;5.97;;;;;;;12.61;100.00;100805.72;4991026;28;20055;-79
2023/07/27 02:27:38;;;;;;;7.72;5.82;;;;;;;12.62;100.00;100796.88;5009646;28;20487;-80
2023/07/27 02:30:07;;;;;;;8.20;5.80;;;;;;;12.61;100.00;100798.66;4998739;28;20049;-80
2023/07/27 02:32:34;;;;;;;7.93;5.72;;;;;;;12.61;100.00;100798.66;5010414;28;20054;-80
2023/07/27 02:35:02;;;;;;;11.35;5.88;;;;;;;12.62;100.00;100795.09;4955109;28;20054;-80
2023/07/27 02:37:30;;;;;;;10.57;6.13;;;;;;;12.63;100.00;100785.44;4992722;28;20065;-80
2023/07/27 02:39:57;;;;;;;9.65;5.72;;;;;;;12.64;100.00;100782.75;4990306;28;20061;-80
2023/07/27 02:42:24;;;;;;;9.00;6.03;;;;;;;12.63;100.00;100781.00;4993090;28;20046;-80
2023/07/27 02:44:52;;;;;;;10.80;6.35;;;;;;;12.65;100.00;100786.28;4986823;28;20042;-80
2023/07/27 02:47:20;;;;;;;8.20;5.72;;;;;;;12.64;100.00;100782.75;5028362;28;20062;-81
2023/07/27 02:49:47;;;;;;;6.60;5.70;;;;;;;12.66;100.00;100772.16;4991403;28;20042;-79
2023/07/27 02:52:14;;;;;;;8.02;5.50;;;;;;;12.67;100.00;100766.88;4988709;28;20134;-80
2023/07/27 02:54:42;;;;;;;9.05;5.43;;;;;;;12.69;100.00;100766.88;4990182;28;20054;-80
2023/07/27 02:57:13;;;;;;;14.88;6.40;;;;;;;12.69;100.00;100766.88;4989296;28;20050;-80
2023/07/27 02:59:46;;;;;;;10.00;5.93;;;;;;;12.69;100.00;100766.88;5011452;28;20050;-79
2023/07/27 03:02:15;;;;;;;9.38;6.40;;;;;;;12.71;100.00;100764.22;4989223;28;20049;-79
2023/07/27 03:04:43;;;;;;;9.35;6.25;;;;;;;12.70;100.00;100758.03;5016711;28;20046;-81
2023/07/27 03:07:11;;;;;;;7.65;5.70;;;;;;;12.71;100.00;100753.66;4986003;28;20061;-80
2023/07/27 03:09:41;;;;;;;9.45;6.43;;;;;;;12.70;100.00;100744.81;4988559;28;20046;-80
2023/07/27 03:12:09;;;;;;;9.82;6.43;;;;;;;12.72;100.00;100751.00;5008280;28;20052;-80
2023/07/27 03:14:36;;;;;;;12.18;6.63;;;;;;;12.72;100.00;100745.72;4994625;28;20410;-80
2023/07/27 03:17:04;;;;;;;7.85;5.90;;;;;;;12.72;100.00;100732.50;5002429;28;20056;-81
2023/07/27 03:19:32;;;;;;;9.80;5.65;;;;;;;12.74;100.00;100733.34;5014207;28;20056;-80
2023/07/27 03:21:59;;;;;;;10.60;6.13;;;;;;;12.75;100.00;100726.28;4978418;28;20041;-80
2023/07/27 03:24:27;;;;;;;8.25;5.95;;;;;;;12.76;100.00;100725.38;4995226;28;20041;-80
2023/07/27 03:26:55;;;;;;;12.18;6.88;;;;;;;12.77;100.00;100727.16;5006474;28;20065;-80
2023/07/27 03:29:22;;;;;;;12.40;7.35;;;;;;;12.78;100.00;100726.25;5010447;28;20537;-81
2023/07/27 03:31:50;;;;;;;7.60;6.10;;;;;;;12.78;100.00;100726.25;5009372;28;20045;-80
2023/07/27 03:34:17;;;;;;;7.80;5.93;;;;;;;12.79;100.00;100728.00;5029324;28;20125;-80
2023/07/27 03:36:45;;;;;;;12.25;6.07;;;;;;;12.81;100.00;100721.81;5000478;28;20080;-81
2023/07/27 03:39:13;;;;;;;8.82;5.97;;;;;;;12.84;100.00;100718.28;5000034;28;20050;-80
2023/07/27 03:41:40;;;;;;;8.60;5.80;;;;;;;12.85;100.00;100717.38;5006267;28;20061;-80
2023/07/27 03:44:11;;;;;;;9.88;5.85;;;;;;;12.88;100.00;100712.06;5004590;28;20049;-80
2023/07/27 03:46:38;;;;;;;8.40;5.85;;;;;;;12.89;100.00;100700.59;5021839;28;20065;-80
2023/07/27 03:49:06;;;;;;;15.73;6.50;;;;;;;12.93;100.00;100706.72;5005351;28;20506;-81
2023/07/27 03:51:33;;;;;;;10.80;6.30;;;;;;;12.94;100.00;100701.44;4975927;28;20068;-80
2023/07/27 03:54:01;;;;;;;7.38;5.68;;;;;;;12.96;100.00;100688.19;4984474;28;20048;-80
2023/07/27 03:56:37;;;;;;;8.68;6.38;;;;;;;12.96;100.00;100696.13;5010013;28;20049;-80
2023/07/27 03:59:05;;;;;;;9.90;5.90;;;;;;;12.96;100.00;100691.72;5004564;28;20056;-80
2023/07/27 04:01:33;;;;;;;12.05;6.63;;;;;;;12.98;100.00;100686.41;4985490;28;20088;-80
2023/07/27 04:04:00;;;;;;;9.90;6.70;;;;;;;12.97;100.00;100685.56;4994610;28;20054;-81
2023/07/27 04:06:28;;;;;;;9.65;6.28;;;;;;;12.99;100.00;100675.84;5005242;28;20038;-79
2023/07/27 04:08:55;;;;;;;11.45;5.82;;;;;;;13.00;100.00;100668.75;4977179;28;20487;-80
2023/07/27 04:11:23;;;;;;;10.48;5.80;;;;;;;13.02;100.00;100680.19;5007963;28;20606;-80
2023/07/27 04:13:50;;;;;;;10.40;6.63;;;;;;;13.03;100.00;100677.53;5007922;28;20049;-81
2023/07/27 04:16:18;;;;;;;8.95;5.38;;;;;;;13.03;100.00;100674.91;5009226;28;20739;-80
2023/07/27 04:18:45;;;;;;;8.32;5.90;;;;;;;13.05;100.00;100673.13;4981891;28;20046;-81
2023/07/27 04:21:13;;;;;;;11.82;6.40;;;;;;;13.09;100.00;100670.44;5005013;28;20369;-79
2023/07/27 04:23:40;;;;;;;11.48;6.22;;;;;;;13.10;100.00;100667.81;5001694;28;20049;-80
2023/07/27 04:26:08;;;;;;;11.68;7.10;;;;;;;13.12;100.00;100668.66;4995547;28;20037;-79
2023/07/27 04:28:35;;;;;;;10.10;5.95;;;;;;;13.15;100.00;100668.59;5009554;28;20057;-80
2023/07/27 04:31:05;;;;;;;8.70;5.90;;;;;;;13.17;100.00;100676.53;4991634;28;20046;-79
2023/07/27 04:33:32;;;;;;;10.75;6.20;;;;;;;13.20;100.00;100674.72;4987071;28;20050;-80
2023/07/27 04:36:02;;;;;;;10.02;6.65;;;;;;;13.22;100.00;100669.44;5004968;28;20046;-79
2023/07/27 04:38:30;;;;;;;8.45;6.03;;;;;;;13.23;100.00;100669.44;5030603;28;20053;-80
2023/07/27 04:40:57;;;;;;;7.03;5.88;;;;;;;13.27;100.00;100670.28;4952707;28;20054;-80
2023/07/27 04:43:25;;;;;;;10.38;6.18;;;;;;;13.28;100.00;100650.84;4993121;28;20054;-80
2023/07/27 04:45:52;;;;;;;10.73;6.28;;;;;;;13.31;100.00;100655.25;5006583;28;20053;-80
2023/07/27 04:48:20;;;;;;;9.95;5.65;;;;;;;13.33;100.00;100650.84;5007720;28;20056;-80
2023/07/27 04:50:47;;;;;;;9.18;5.30;;;;;;;13.35;100.00;100649.91;5002702;28;20411;-80
2023/07/27 04:53:15;;;;;;;8.38;5.60;;;;;;;13.37;100.00;100648.13;4986544;28;20634;-80
2023/07/27 04:55:42;;;;;;;8.38;6.10;;;;;;;13.39;100.00;100645.47;4986148;28;20050;-80
2023/07/27 04:58:10;;;;;;;11.55;6.70;;;;;;;13.41;100.00;100628.66;5016432;28;20080;-80
2023/07/27 05:00:37;;;;;;;10.32;6.88;;;;;;;13.44;100.00;100631.28;5009608;28;20081;-80
2023/07/27 05:03:06;;;;;;;8.77;6.68;;;;;;;13.47;100.00;100630.34;4990390;28;20062;-81
2023/07/27 05:05:33;;;;;;;9.13;6.25;;;;;;;13.50;100.00;100634.75;4994912;28;20053;-80
2023/07/27 05:08:01;;;;;;;9.35;6.38;;;;;;;13.51;100.00;100632.06;4970512;28;20058;-80
2023/07/27 05:10:30;;;;;;;7.57;6.05;;;;;;;13.52;100.00;100631.19;4976501;28;20062;-80
2023/07/27 05:12:58;;;;;;;10.23;6.63;;;;;;;13.56;100.00;100634.69;4991177;28;20058;-81
2023/07/27 05:15:25;;;;;;;10.43;6.25;;;;;;;13.57;100.00;100629.38;4978362;28;20057;-80
2023/07/27 05:17:52;;;;;;;11.50;7.28;;;;;;;13.57;100.00;100628.47;4991308;28;20076;-79
2023/07/27 05:20:20;;;;;;;9.30;6.00;;;;;;;13.58;100.00;100623.16;4999021;28;20069;-80
2023/07/27 05:22:47;;;;;;;9.57;6.85;;;;;;;13.58;100.00;100623.16;5017321;28;20439;-80
2023/07/27 05:25:15;;;;;;;10.90;7.55;;;;;;;13.59;100.00;100619.63;4988262;28;20784;-80
2023/07/27 05:27:42;;;;;;;11.50;7.07;;;;;;;13.60;100.00;100615.19;4988955;28;20053;-80
2023/07/27 05:30:10;;;;;;;9.70;6.75;;;;;;;13.62;100.00;100610.75;5020316;28;20470;-80
2023/07/27 05:32:38;;;;;;;11.13;7.05;;;;;;;13.65;100.00;100610.72;4977474;28;20061;-80
2023/07/27 05:35:07;;;;;;;10.63;6.40;;;;;;;13.67;100.00;100603.63;4998035;28;20064;-79
2023/07/27 05:37:34;;;;;;;9.20;6.88;;;;;;;13.72;100.00;100603.56;5010697;28;20050;-79
2023/07/27 05:40:04;;;;;;;13.73;8.23;;;;;;;13.75;100.00;100606.19;4956837;28;20057;-80
2023/07/27 05:42:32;;;;;;;11.23;7.05;;;;;;;13.77;100.00;100607.03;5027959;28;20057;-80
2023/07/27 05:44:59;;;;;;;8.80;6.72;;;;;;;13.78;100.00;100604.38;4997039;28;20054;-80
2023/07/27 05:47:27;;;;;;;12.65;6.97;;;;;;;13.79;100.00;100605.25;4974302;28;20062;-79
2023/07/27 05:49:55;;;;;;;6.70;5.78;;;;;;;13.80;100.00;100607.00;4995616;28;20062;-80
2023/07/27 05:52:23;;;;;;;8.95;6.53;;;;;;;13.81;100.00;100595.50;4982675;28;20065;-79
2023/07/27 05:54:51;;;;;;;7.85;6.93;;;;;;;13.83;100.00;100593.69;5013886;28;20618;-78
2023/07/27 05:57:20;;;;;;;10.80;6.15;;;;;;;13.82;100.00;100598.13;4980330;28;20054;-79
2023/07/27 05:59:47;;;;;;;13.25;6.60;;;;;;;13.83;100.00;100594.56;4972665;28;20483;-78
2023/07/27 06:02:31;;;;;;;10.38;6.22;;;;;;;13.85;100.00;100599.84;5006022;28;20053;-79
2023/07/27 06:05:00;;;;;;;10.63;6.88;;;;;;;13.86;100.00;100593.66;4985731;28;20046;-80
2023/07/27 06:07:27;;;;;;;10.10;6.18;;;;;;;13.86;100.00;100595.44;4990799;28;20134;-80
2023/07/27 06:09:55;;;;;;;10.55;6.60;;;;;;;13.86;100.00;100591.03;5009849;28;20426;-80
2023/07/27 06:12:23;;;;;;;10.43;5.97;;;;;;;13.88;100.00;100588.34;4980647;28;20061;-81
2023/07/27 06:14:51;;;;;;;9.70;6.97;;;;;;;13.88;100.00;100588.34;4986451;28;20050;-80
2023/07/27 06:17:21;;;;;;;14.85;7.38;;;;;;;13.88;100.00;100588.34;4994614;28;20050;-80
2023/07/27 06:19:49;;;;;;;;;;;;;;;13.87;100.00;100581.28;5007075;28;20764;-80
2023/07/27 06:22:16;;;;;;;11.20;7.03;;;;;;;13.85;100.00;100581.31;4991473;28;19937;-80
2023/07/27 06:24:44;;;;;;;11.13;7.07;;;;;;;13.84;100.00;100571.63;4977039;28;20058;-79
2023/07/27 06:27:11;;;;;;;9.68;7.07;;;;;;;13.85;100.00;100570.72;4979855;28;20061;-79
2023/07/27 06:29:39;;;;;;;10.50;7.47;;;;;;;13.83;100.00;100570.72;4988304;28;20054;-79
2023/07/27 06:32:07;;;;;;;9.43;7.00;;;;;;;13.86;100.00;100566.31;4995555;28;20045;-79
2023/07/27 06:34:35;;;;;;;12.25;7.75;;;;;;;13.88;100.00;100556.56;5001273;28;20050;-78
2023/07/27 06:37:03;;;;;;;9.05;6.22;;;;;;;13.90;100.00;100552.97;5007248;28;20492;-80
2023/07/27 06:39:30;;;;;;;11.48;6.80;;;;;;;13.94;100.00;100552.03;4977849;28;20050;-79
2023/07/27 06:41:57;;;;;;;9.68;6.50;;;;;;;13.99;100.00;100544.03;4985703;28;20505;-79
2023/07/27 06:44:31;;;;;;;9.63;6.88;;;;;;;14.04;100.00;100535.13;4981825;28;20053;-80
2023/07/27 06:46:58;;;;;;;9.15;6.65;;;;;;;14.10;100.00;100535.88;4988451;28;20491;-81
2023/07/27 06:49:25;;;;;;;8.52;6.90;;;;;;;14.15;100.00;100528.75;5004342;28;20058;-80
2023/07/27 06:51:53;;;;;;;11.40;6.38;;;;;;;14.21;100.00;100523.34;4999577;28;20415;-79
2023/07/27 06:54:20;;;;;;;7.05;5.97;;;;;;;14.27;100.00;100532.97;4970875;28;20050;-79
2023/07/27 06:56:48;;;;;;;8.07;6.05;;;;;;;14.36;100.00;100532.81;5026407;28;20491;-79
2023/07/27 06:59:15;;;;;;;5.50;4.90;;;;;;;14.41;100.00;100539.78;4971720;28;20844;-79
2023/07/27 07:01:43;;;;;;;8.57;5.20;;;;;;;14.46;100.00;100533.53;5012246;28;20049;-79
2023/07/27 07:04:12;;;;;;;7.78;4.88;;;;;;;14.52;100.00;100542.25;4985617;28;20048;-79
2023/07/27 07:06:40;;;;;;;7.55;5.32;;;;;;;14.55;100.00;100538.66;5008299;28;20410;-80
2023/07/27 07:09:10;;;;;;;7.72;5.30;;;;;;;14.60;100.00;100534.19;4970478;28;20059;-80
2023/07/27 07:11:37;;;;;;;6.93;5.63;;;;;;;14.65;100.00;100529.69;5014279;28;20045;-79
2023/07/27 07:14:05;;;;;;;8.70;5.63;;;;;;;14.71;100.00;100534.00;4982747;28;20046;-79
2023/07/27 07:16:33;;;;;;;7.10;5.50;;;;;;;14.75;100.00;100520.63;5006645;28;20419;-79
2023/07/27 07:19:01;;;;;;;7.82;5.43;;;;;;;14.82;100.00;100522.28;4997434;28;20396;-80
2023/07/27 07:21:28;;;;;;;7.63;5.75;;;;;;;14.89;100.00;100520.34;5000039;28;20049;-79
2023/07/27 07:23:56;;;;;;;7.68;5.20;;;;;;;14.97;100.00;100514.88;4956417;28;20053;-79
2023/07/27 07:26:24;;;;;;;6.93;5.75;;;;;;;15.06;100.00;100514.72;4992559;28;20068;-79
2023/07/27 07:28:52;;;;;;;8.00;5.65;;;;;;;15.12;100.00;100504.00;4997270;28;20056;-79
2023/07/27 07:31:20;;;;;;;8.10;6.03;;;;;;;15.18;100.00;100506.50;4992062;28;20050;-79
2023/07/27 07:33:48;;;;;;;7.97;6.15;;;;;;;15.24;100.00;100502.84;5021321;28;20045;-79
2023/07/27 07:36:16;;;;;;;7.63;6.82;;;;;;;15.28;100.00;100498.34;4994925;28;20053;-81
2023/07/27 07:38:43;;;;;;;8.02;6.07;;;;;;;15.29;100.00;100495.66;5008956;28;20042;-80
2023/07/27 07:41:11;;;;;;;9.38;5.40;;;;;;;15.31;100.00;100490.28;4981782;28;20049;-80
2023/07/27 07:43:41;;;;;;;6.65;5.80;;;;;;;15.31;100.00;100483.22;4998847;28;20045;-79
2023/07/27 07:46:12;;;;;;;10.32;5.90;;;;;;;15.33;100.00;100489.38;4962370;28;20069;-79
2023/07/27 07:48:40;;;;;;;7.82;6.38;;;;;;;15.35;100.00;100490.22;4986894;28;20053;-80
2023/07/27 07:51:12;;;;;;;9.05;5.75;;;;;;;15.36;100.00;100470.69;4960125;28;20054;-80
2023/07/27 07:53:40;;;;;;;7.65;6.07;;;;;;;15.38;100.00;100483.94;4982592;28;20522;-79
2023/07/27 07:56:15;;;;;;;6.65;5.85;;;;;;;15.40;100.00;100479.47;4992475;28;20860;-79
2023/07/27 07:58:45;;;;;;;9.35;6.25;;;;;;;15.44;100.00;100477.63;5019834;28;20512;-79
2023/07/27 08:01:13;;;;;;;5.70;4.75;;;;;;;15.45;100.00;100472.28;4969475;28;20041;-79
2023/07/27 08:03:41;;;;;;;6.10;5.30;;;;;;;15.46;100.00;100471.38;4999417;28;20053;-79
2023/07/27 08:06:12;;;;;;;9.10;5.65;;;;;;;15.48;100.00;100463.38;4985909;28;20048;-79
2023/07/27 08:08:39;;;;;;;6.63;4.70;;;;;;;15.50;100.00;100465.09;5006992;28;20072;-80
2023/07/27 08:11:09;;;;;;;6.70;5.38;;;;;;;15.53;100.00;100454.38;4975893;28;20075;-80
2023/07/27 08:13:39;;;;;;;;;;;;;;;15.55;100.00;100457.00;4993571;28;20045;-80
2023/07/27 08:16:06;;;;;;;7.70;5.32;;;;;;;15.51;100.00;100453.56;4968723;28;19932;-81
2023/07/27 08:18:35;;;;;;;6.13;5.22;;;;;;;15.51;100.00;100448.25;5007417;28;20046;-80
2023/07/27 08:21:04;;;;;;;8.95;5.57;;;;;;;15.53;100.00;100442.91;4997488;28;20042;-80
2023/07/27 08:23:32;;;;;;;8.18;5.65;;;;;;;15.53;100.00;100434.94;4999496;28;20511;-81
2023/07/27 08:26:06;;;;;;;6.88;5.38;;;;;;;15.54;100.00;100437.56;5024049;28;20033;-81
2023/07/27 08:28:33;;;;;;;7.50;4.82;;;;;;;15.58;100.00;100439.22;5010336;28;20054;-81
2023/07/27 08:31:05;;;;;;;8.30;5.55;;;;;;;15.63;100.00;100431.13;5007753;28;20391;-80
2023/07/27 08:33:33;;;;;;;6.78;6.07;;;;;;;15.70;100.00;100437.19;4980012;28;20046;-80
2023/07/27 08:36:01;;;;;;;7.35;4.97;;;;;;;15.70;100.00;100430.06;4968963;28;20154;-81
2023/07/27 08:38:30;;;;;;;7.75;5.10;;;;;;;15.73;100.00;100421.19;4993688;28;20049;-81
2023/07/27 08:40:59;;;;;;;5.80;5.20;;;;;;;15.75;100.00;100430.88;5027081;28;20045;-81
2023/07/27 08:43:27;;;;;;;6.10;4.82;;;;;;;15.78;100.00;100422.84;5006654;28;20053;-80
2023/07/27 08:45:55;;;;;;;6.25;5.00;;;;;;;15.78;100.00;100424.59;5011562;28;20053;-79
2023/07/27 08:48:24;;;;;;;6.93;4.72;;;;;;;15.78;100.00;100421.94;4992917;28;20052;-82
2023/07/27 08:50:54;;;;;;;6.32;4.45;;;;;;;15.78;100.00;100421.94;5009506;28;20054;-80
2023/07/27 08:53:22;;;;;;;8.13;5.50;;;;;;;15.76;100.00;100416.69;4999455;28;20042;-79
2023/07/27 08:55:50;;;;;;;8.25;4.80;;;;;;;15.76;100.00;100415.81;5004485;28;20050;-79
2023/07/27 08:58:18;;;;;;;5.88;4.68;;;;;;;15.77;100.00;100406.94;4992602;28;20050;-80
2023/07/27 09:00:45;;;;;;;4.03;3.70;;;;;;;15.75;100.00;100414.06;5014496;28;20062;-79
2023/07/27 09:03:13;;;;;;;3.92;3.38;;;;;;;15.74;100.00;100413.19;4956085;28;20057;-80
2023/07/27 09:05:57;;;;;;;4.18;3.30;;;;;;;15.76;100.00;100402.53;4988311;28;20563;-79
2023/07/27 09:08:29;;;;;;;3.30;3.00;;;;;;;15.75;100.00;100403.44;5001370;28;20025;-80
2023/07/27 09:11:07;;;;;;;3.28;2.97;;;;;;;15.75;100.00;100393.69;5023856;28;20101;-80
2023/07/27 09:13:36;;;;;;;3.80;3.50;;;;;;;15.75;100.00;100395.47;5023420;28;20053;-81
2023/07/27 09:16:10;;;;;;;5.80;3.70;;;;;;;15.73;100.00;100390.19;5017871;28;20061;-80
2023/07/27 09:18:38;;;;;;;6.07;3.00;;;;;;;15.75;100.00;100392.81;4990836;28;20093;-80
2023/07/27 09:21:09;;;;;;;3.53;3.15;;;;;;;15.77;100.00;100391.00;5010906;28;20061;-80
2023/07/27 09:23:38;;;;;;;3.80;3.47;;;;;;;15.79;100.00;100392.69;4987992;28;20060;-80
2023/07/27 09:26:06;;;;;;;3.53;3.22;;;;;;;15.81;100.00;100391.78;5007869;28;20046;-81
2023/07/27 09:28:34;;;;;;;3.78;3.40;;;;;;;15.79;100.00;100387.38;5012123;28;20440;-79
2023/07/27 09:31:02;;;;;;;3.50;3.20;;;;;;;15.79;100.00;100389.16;4973271;28;20057;-80
2023/07/27 09:33:31;;;;;;;3.88;3.58;;;;;;;15.83;100.00;100388.19;5001286;28;20061;-80
2023/07/27 09:36:02;;;;;;;4.22;3.92;;;;;;;15.87;100.00;100373.91;4967868;28;20061;-80
2023/07/27 09:38:30;;;;;;;;;;;;;;;15.89;100.00;100388.00;5006600;28;20046;-80
2023/07/27 09:41:05;;;;;;;4.82;4.25;;;;;;;15.90;100.00;100376.47;4988122;28;19925;-81
2023/07/27 09:43:39;;;;;;;3.50;3.30;;;;;;;15.92;100.00;100376.44;5012716;28;20053;-80
2023/07/27 09:46:07;;;;;;;3.30;3.10;;;;;;;15.92;100.00;100379.09;5010936;28;20572;-80
2023/07/27 09:48:35;;;;;;;3.60;3.38;;;;;;;15.92;100.00;100379.97;5007498;28;20053;-80
2023/07/27 09:51:07;;;;;;;3.92;3.55;;;;;;;15.92;100.00;100377.31;4976669;28;20038;-80
2023/07/27 09:53:36;;;;;;;4.15;3.85;;;;;;;15.92;100.00;100377.31;4997044;28;20042;-80
2023/07/27 09:56:05;;;;;;;4.00;3.70;;;;;;;15.92;100.00;100364.03;4962210;28;20053;-81
2023/07/27 09:58:36;;;;;;;6.00;4.13;;;;;;;15.92;100.00;100361.38;5011086;28;20062;-80
2023/07/27 10:01:05;;;;;;;4.50;4.10;;;;;;;15.93;100.00;100365.75;5019776;28;20111;-81
2023/07/27 10:03:33;;;;;;;4.13;3.83;;;;;;;15.96;100.00;100363.03;4993690;28;20050;-79
2023/07/27 10:06:01;;;;;;;4.10;3.70;;;;;;;16.01;100.00;100362.03;4956170;28;25821;-80
2023/07/27 10:08:29;;;;;;;4.38;3.90;;;;;;;16.02;100.00;100353.16;4987018;28;20043;-80
2023/07/27 10:11:00;;;;;;;6.40;5.78;;;;;;;16.02;100.00;100358.47;4990071;28;20058;-82
2023/07/27 10:13:27;;;;;;;4.40;4.00;;;;;;;16.04;100.00;100360.16;5020654;28;20049;-81
2023/07/27 10:15:56;;;;;;;4.53;4.22;;;;;;;16.06;100.00;100354.81;5007761;28;20513;-80
2023/07/27 10:18:26;;;;;;;5.03;4.22;;;;;;;16.11;100.00;100342.28;5004890;28;20045;-82
2023/07/27 10:21:22;;;;;;;4.25;3.60;;;;;;;16.18;100.00;100350.03;5000262;28;20046;-80
2023/07/27 10:23:53;;;;;;;4.32;3.90;;;;;;;16.25;100.00;100350.72;4982167;28;20038;-79
2023/07/27 10:26:49;;;;;;;4.00;3.30;;;;;;;16.23;100.00;100355.22;4990496;28;20416;-80
2023/07/27 10:29:19;;;;;;;4.50;4.10;;;;;;;16.26;100.00;100341.84;5006664;28;20843;-79
2023/07/27 10:32:00;;;;;;;4.47;4.05;;;;;;;16.29;100.00;100338.22;4992240;28;20069;-79
2023/07/27 10:34:29;;;;;;;3.60;3.40;;;;;;;16.34;100.00;100338.97;5004002;28;20042;-81
2023/07/27 10:37:09;;;;;;;3.50;3.20;;;;;;;16.38;100.00;100343.28;4978250;28;20614;-81
2023/07/27 10:39:42;;;;;;;3.97;3.42;;;;;;;16.39;100.00;100345.03;4985227;28;20163;-80
2023/07/27 10:42:13;;;;;;;4.15;3.45;;;;;;;16.43;100.00;100341.34;4983040;28;20054;-80
2023/07/27 10:44:48;;;;;;;;;;;;;;;16.46;100.00;100329.75;5005527;28;20039;-80
2023/07/27 10:47:25;;;;;;;3.30;3.08;;;;;;;16.44;100.00;100337.75;5018011;28;19925;-81
2023/07/27 10:49:55;;;;;;;3.75;3.47;;;;;;;16.43;100.00;100332.50;4997902;28;20053;-80
2023/07/27 10:52:29;;;;;;;3.25;3.05;;;;;;;16.44;100.00;100329.78;4999154;28;20053;-80
2023/07/27 10:54:59;;;;;;;4.03;3.72;;;;;;;16.44;100.00;100336.91;5005094;28;20530;-80
2023/07/27 10:57:27;;;;;;;4.13;3.78;;;;;;;16.44;100.00;100329.78;4981815;28;20046;-81
2023/07/27 10:59:55;;;;;;;5.15;3.70;;;;;;;16.44;100.00;100320.94;5017403;28;20397;-81
2023/07/27 11:02:43;;;;;;;4.03;3.72;;;;;;;16.41;100.00;100323.69;5005673;28;20057;-80
2023/07/27 11:05:12;;;;;;;4.63;3.70;;;;;;;16.43;100.00;100322.75;4988428;28;20045;-80
2023/07/27 11:07:42;;;;;;;3.90;3.60;;;;;;;16.47;100.00;100323.53;5010825;28;20054;-80
2023/07/27 11:10:12;;;;;;;3.53;3.33;;;;;;;16.50;100.00;100319.00;4978811;28;20050;-80
2023/07/27 11:12:51;;;;;;;2.90;2.72;;;;;;;16.52;100.00;100316.25;5020771;28;20064;-80
2023/07/27 11:15:21;;;;;;;2.60;2.40;;;;;;;16.51;100.00;100318.06;4998641;28;20053;-80
2023/07/27 11:17:56;;;;;;;;;;;;;;;16.48;100.00;100310.19;5005137;28;20046;-79
2023/07/27 11:20:26;;;;;;;3.78;2.60;;;;;;;16.43;100.00;100316.56;5000234;28;19925;-82
2023/07/27 11:22:56;;;;;;;2.72;2.60;;;;;;;16.40;100.00;100314.84;5011475;28;20495;-79
2023/07/27 11:25:24;;;;;;;10.48;3.30;;;;;;;16.40;100.00;100321.97;4984504;28;20050;-80
2023/07/27 11:27:53;;;;;;;3.55;3.30;;;;;;;16.39;100.00;100326.41;4999484;28;20515;-80